sensor_id;sensor_type;location;lat;lon;timestamp;noise_LAeq;noise_LA_min;noise_LA_max;noise_LA01;noise_LA95
72686;Laerm;61365;52.162;4.500;2023-08-21T00:01:22;40.30;35.98;43.95;;
72686;Laerm;61365;52.162;4.500;2023-08-21T00:03:49;40.38;36.22;43.65;;
72686;Laerm;61365;52.162;4.500;2023-08-21T00:06:15;40.39;36.35;43.83;;
72686;Laerm;61365;52.162;4.500;2023-08-21T00:08:41;40.56;34.35;43.68;;
72686;Laerm;61365;52.162;4.500;2023-08-21T00:11:08;40.57;35.33;43.50;;
72686;Laerm;61365;52.162;4.500;2023-08-21T00:13:34;40.31;36.60;43.66;;
72686;Laerm;61365;52.162;4.500;2023-08-21T00:16:00;40.47;35.10;43.84;;
72686;Laerm;61365;52.162;4.500;2023-08-21T00:18:26;40.34;36.24;43.69;;
72686;Laerm;61365;52.162;4.500;2023-08-21T00:20:52;40.40;35.57;43.46;;
72686;Laerm;61365;52.162;4.500;2023-08-21T00:23:18;40.36;36.06;43.63;;
72686;Laerm;61365;52.162;4.500;2023-08-21T00:25:46;40.39;35.09;43.62;;
72686;Laerm;61365;52.162;4.500;2023-08-21T00:28:13;40.42;35.77;43.68;;
72686;Laerm;61365;52.162;4.500;2023-08-21T00:30:41;40.36;35.60;43.87;;
72686;Laerm;61365;52.162;4.500;2023-08-21T00:33:07;40.61;36.32;43.60;;
72686;Laerm;61365;52.162;4.500;2023-08-21T00:35:34;40.60;36.05;43.76;;
72686;Laerm;61365;52.162;4.500;2023-08-21T00:38:00;41.73;37.64;43.96;;
72686;Laerm;61365;52.162;4.500;2023-08-21T00:40:26;41.75;36.72;44.05;;
72686;Laerm;61365;52.162;4.500;2023-08-21T00:42:52;41.75;37.33;43.97;;
72686;Laerm;61365;52.162;4.500;2023-08-21T00:45:18;40.81;35.37;43.78;;
72686;Laerm;61365;52.162;4.500;2023-08-21T00:47:46;40.74;34.86;44.08;;
72686;Laerm;61365;52.162;4.500;2023-08-21T00:50:12;40.75;35.06;43.93;;
72686;Laerm;61365;52.162;4.500;2023-08-21T00:52:40;41.00;36.16;44.15;;
72686;Laerm;61365;52.162;4.500;2023-08-21T00:55:07;40.80;35.97;44.17;;
72686;Laerm;61365;52.162;4.500;2023-08-21T00:57:35;41.80;36.98;44.06;;
72686;Laerm;61365;52.162;4.500;2023-08-21T01:00:02;40.81;33.70;44.16;;
72686;Laerm;61365;52.162;4.500;2023-08-21T01:02:30;40.75;35.11;43.97;;
72686;Laerm;61365;52.162;4.500;2023-08-21T01:04:56;40.88;35.50;44.19;;
72686;Laerm;61365;52.162;4.500;2023-08-21T01:07:22;40.77;35.89;43.82;;
72686;Laerm;61365;52.162;4.500;2023-08-21T01:10:01;40.88;36.21;43.73;;
72686;Laerm;61365;52.162;4.500;2023-08-21T01:12:48;40.81;36.14;44.04;;
72686;Laerm;61365;52.162;4.500;2023-08-21T01:15:16;40.87;35.54;44.10;;
72686;Laerm;61365;52.162;4.500;2023-08-21T01:17:45;40.77;35.94;43.98;;
72686;Laerm;61365;52.162;4.500;2023-08-21T01:20:13;40.81;35.49;43.76;;
72686;Laerm;61365;52.162;4.500;2023-08-21T01:22:41;40.82;36.18;43.84;;
72686;Laerm;61365;52.162;4.500;2023-08-21T01:25:12;41.01;36.24;43.94;;
72686;Laerm;61365;52.162;4.500;2023-08-21T01:27:45;40.87;36.11;44.08;;
72686;Laerm;61365;52.162;4.500;2023-08-21T01:30:12;40.92;36.61;43.92;;
72686;Laerm;61365;52.162;4.500;2023-08-21T01:33:03;40.81;34.90;43.73;;
72686;Laerm;61365;52.162;4.500;2023-08-21T01:35:33;41.06;36.04;43.89;;
72686;Laerm;61365;52.162;4.500;2023-08-21T01:38:01;42.00;37.28;44.28;;
72686;Laerm;61365;52.162;4.500;2023-08-21T01:40:27;41.80;36.95;44.14;;
72686;Laerm;61365;52.162;4.500;2023-08-21T01:42:54;41.50;36.57;44.25;;
72686;Laerm;61365;52.162;4.500;2023-08-21T01:45:21;41.51;36.83;44.13;;
72686;Laerm;61365;52.162;4.500;2023-08-21T01:47:47;41.81;37.17;44.06;;
72686;Laerm;61365;52.162;4.500;2023-08-21T01:50:13;41.57;37.10;44.11;;
72686;Laerm;61365;52.162;4.500;2023-08-21T01:52:39;41.29;36.73;44.13;;
72686;Laerm;61365;52.162;4.500;2023-08-21T01:55:05;41.35;36.65;43.98;;
72686;Laerm;61365;52.162;4.500;2023-08-21T01:57:33;41.62;36.55;44.18;;
72686;Laerm;61365;52.162;4.500;2023-08-21T01:59:59;41.64;36.07;44.08;;
72686;Laerm;61365;52.162;4.500;2023-08-21T02:02:26;42.11;35.82;44.10;;
72686;Laerm;61365;52.162;4.500;2023-08-21T02:04:52;42.13;38.59;44.00;;
72686;Laerm;61365;52.162;4.500;2023-08-21T02:07:18;42.10;37.99;43.95;;
72686;Laerm;61365;52.162;4.500;2023-08-21T02:09:44;42.17;38.94;44.19;;
72686;Laerm;61365;52.162;4.500;2023-08-21T02:12:10;42.18;37.58;44.16;;
72686;Laerm;61365;52.162;4.500;2023-08-21T02:14:36;41.99;37.48;44.40;;
72686;Laerm;61365;52.162;4.500;2023-08-21T02:17:02;42.28;37.90;44.34;;
72686;Laerm;61365;52.162;4.500;2023-08-21T02:19:28;41.98;38.00;44.34;;
72686;Laerm;61365;52.162;4.500;2023-08-21T02:21:54;41.88;37.60;44.60;;
72686;Laerm;61365;52.162;4.500;2023-08-21T02:24:21;42.00;37.33;44.32;;
72686;Laerm;61365;52.162;4.500;2023-08-21T02:26:47;41.61;36.72;44.46;;
72686;Laerm;61365;52.162;4.500;2023-08-21T02:29:13;41.50;35.77;44.21;;
72686;Laerm;61365;52.162;4.500;2023-08-21T02:31:39;41.95;37.31;44.34;;
72686;Laerm;61365;52.162;4.500;2023-08-21T02:34:05;42.40;37.65;44.53;;
72686;Laerm;61365;52.162;4.500;2023-08-21T02:36:32;42.21;37.55;44.47;;
72686;Laerm;61365;52.162;4.500;2023-08-21T02:38:58;42.13;37.75;44.44;;
72686;Laerm;61365;52.162;4.500;2023-08-21T02:41:24;42.13;37.56;44.47;;
72686;Laerm;61365;52.162;4.500;2023-08-21T02:43:50;41.79;36.90;44.52;;
72686;Laerm;61365;52.162;4.500;2023-08-21T02:46:16;41.59;36.80;44.05;;
72686;Laerm;61365;52.162;4.500;2023-08-21T02:48:43;41.77;37.51;44.21;;
72686;Laerm;61365;52.162;4.500;2023-08-21T02:51:09;42.01;38.28;44.15;;
72686;Laerm;61365;52.162;4.500;2023-08-21T02:53:35;42.18;38.58;44.11;;
72686;Laerm;61365;52.162;4.500;2023-08-21T02:56:01;42.17;37.69;44.14;;
72686;Laerm;61365;52.162;4.500;2023-08-21T02:58:27;42.15;38.86;44.06;;
72686;Laerm;61365;52.162;4.500;2023-08-21T03:00:53;42.01;38.40;44.30;;
72686;Laerm;61365;52.162;4.500;2023-08-21T03:03:20;41.27;37.50;43.90;;
72686;Laerm;61365;52.162;4.500;2023-08-21T03:05:46;41.74;36.32;44.41;;
72686;Laerm;61365;52.162;4.500;2023-08-21T03:08:12;41.51;36.95;44.17;;
72686;Laerm;61365;52.162;4.500;2023-08-21T03:10:38;41.94;37.14;44.08;;
72686;Laerm;61365;52.162;4.500;2023-08-21T03:13:04;41.85;37.43;44.03;;
72686;Laerm;61365;52.162;4.500;2023-08-21T03:15:30;41.93;38.10;43.99;;
72686;Laerm;61365;52.162;4.500;2023-08-21T03:17:56;41.78;37.25;44.13;;
72686;Laerm;61365;52.162;4.500;2023-08-21T03:20:23;41.81;36.48;44.19;;
72686;Laerm;61365;52.162;4.500;2023-08-21T03:22:49;41.56;36.83;43.99;;
72686;Laerm;61365;52.162;4.500;2023-08-21T03:25:15;41.71;37.38;43.94;;
72686;Laerm;61365;52.162;4.500;2023-08-21T03:27:41;41.63;36.30;43.88;;
72686;Laerm;61365;52.162;4.500;2023-08-21T03:30:10;41.86;37.63;43.93;;
72686;Laerm;61365;52.162;4.500;2023-08-21T03:32:36;41.86;37.70;43.95;;
72686;Laerm;61365;52.162;4.500;2023-08-21T03:35:03;41.86;37.02;43.86;;
72686;Laerm;61365;52.162;4.500;2023-08-21T03:37:29;41.81;37.48;44.13;;
72686;Laerm;61365;52.162;4.500;2023-08-21T03:39:55;42.03;36.92;44.26;;
72686;Laerm;61365;52.162;4.500;2023-08-21T03:42:21;42.01;37.80;44.07;;
72686;Laerm;61365;52.162;4.500;2023-08-21T03:44:47;42.03;38.52;44.13;;
72686;Laerm;61365;52.162;4.500;2023-08-21T03:47:16;41.96;37.61;44.03;;
72686;Laerm;61365;52.162;4.500;2023-08-21T03:49:42;41.81;37.53;43.92;;
72686;Laerm;61365;52.162;4.500;2023-08-21T03:52:08;42.06;38.87;44.19;;
72686;Laerm;61365;52.162;4.500;2023-08-21T03:54:34;42.13;38.84;44.15;;
72686;Laerm;61365;52.162;4.500;2023-08-21T03:57:00;41.96;38.59;43.80;;
72686;Laerm;61365;52.162;4.500;2023-08-21T03:59:27;42.07;38.63;44.01;;
72686;Laerm;61365;52.162;4.500;2023-08-21T04:01:55;41.89;36.50;45.14;;
72686;Laerm;61365;52.162;4.500;2023-08-21T04:04:21;41.77;37.48;44.57;;
72686;Laerm;61365;52.162;4.500;2023-08-21T04:06:48;41.76;37.68;44.17;;
72686;Laerm;61365;52.162;4.500;2023-08-21T04:09:14;42.03;36.89;44.99;;
72686;Laerm;61365;52.162;4.500;2023-08-21T04:11:40;41.73;37.73;43.80;;
72686;Laerm;61365;52.162;4.500;2023-08-21T04:14:06;41.99;39.09;43.97;;
72686;Laerm;61365;52.162;4.500;2023-08-21T04:16:32;41.90;37.38;44.04;;
72686;Laerm;61365;52.162;4.500;2023-08-21T04:18:58;41.55;37.00;44.02;;
72686;Laerm;61365;52.162;4.500;2023-08-21T04:21:24;41.83;37.77;44.08;;
72686;Laerm;61365;52.162;4.500;2023-08-21T04:23:51;41.97;39.10;44.41;;
72686;Laerm;61365;52.162;4.500;2023-08-21T04:26:17;41.95;37.99;44.32;;
72686;Laerm;61365;52.162;4.500;2023-08-21T04:28:43;41.89;37.31;44.10;;
72686;Laerm;61365;52.162;4.500;2023-08-21T04:31:09;41.93;36.52;43.97;;
72686;Laerm;61365;52.162;4.500;2023-08-21T04:33:35;42.02;38.64;44.10;;
72686;Laerm;61365;52.162;4.500;2023-08-21T04:36:02;41.96;37.63;44.07;;
72686;Laerm;61365;52.162;4.500;2023-08-21T04:38:28;42.05;37.00;44.04;;
72686;Laerm;61365;52.162;4.500;2023-08-21T04:40:54;42.02;37.51;44.36;;
72686;Laerm;61365;52.162;4.500;2023-08-21T04:43:20;41.99;37.68;43.96;;
72686;Laerm;61365;52.162;4.500;2023-08-21T04:45:50;41.98;37.68;44.22;;
72686;Laerm;61365;52.162;4.500;2023-08-21T04:48:16;42.02;38.54;44.14;;
72686;Laerm;61365;52.162;4.500;2023-08-21T04:50:43;42.00;37.87;43.94;;
72686;Laerm;61365;52.162;4.500;2023-08-21T04:53:09;42.05;37.42;44.14;;
72686;Laerm;61365;52.162;4.500;2023-08-21T04:55:35;42.09;38.47;44.06;;
72686;Laerm;61365;52.162;4.500;2023-08-21T04:58:02;42.02;37.42;44.15;;
72686;Laerm;61365;52.162;4.500;2023-08-21T05:00:29;42.10;39.28;44.19;;
72686;Laerm;61365;52.162;4.500;2023-08-21T05:02:55;42.10;38.76;43.91;;
72686;Laerm;61365;52.162;4.500;2023-08-21T05:05:21;42.21;39.61;44.09;;
72686;Laerm;61365;52.162;4.500;2023-08-21T05:07:47;42.24;38.83;44.59;;
72686;Laerm;61365;52.162;4.500;2023-08-21T05:10:13;42.07;37.67;44.29;;
72686;Laerm;61365;52.162;4.500;2023-08-21T05:12:40;42.05;36.29;44.01;;
72686;Laerm;61365;52.162;4.500;2023-08-21T05:15:06;41.87;36.80;43.80;;
72686;Laerm;61365;52.162;4.500;2023-08-21T05:17:32;42.03;37.98;43.93;;
72686;Laerm;61365;52.162;4.500;2023-08-21T05:19:58;42.02;37.65;44.11;;
72686;Laerm;61365;52.162;4.500;2023-08-21T05:22:24;41.89;39.07;44.15;;
72686;Laerm;61365;52.162;4.500;2023-08-21T05:24:51;41.87;37.17;44.30;;
72686;Laerm;61365;52.162;4.500;2023-08-21T05:27:17;41.89;38.42;43.91;;
72686;Laerm;61365;52.162;4.500;2023-08-21T05:29:43;41.57;37.53;43.79;;
72686;Laerm;61365;52.162;4.500;2023-08-21T05:32:09;41.27;37.07;43.49;;
72686;Laerm;61365;52.162;4.500;2023-08-21T05:34:35;41.35;36.81;43.67;;
72686;Laerm;61365;52.162;4.500;2023-08-21T05:37:01;41.30;36.46;43.76;;
72686;Laerm;61365;52.162;4.500;2023-08-21T05:39:27;41.24;36.11;43.38;;
72686;Laerm;61365;52.162;4.500;2023-08-21T05:41:53;41.14;34.48;43.77;;
72686;Laerm;61365;52.162;4.500;2023-08-21T05:44:19;41.68;37.39;44.00;;
72686;Laerm;61365;52.162;4.500;2023-08-21T05:46:45;41.88;37.97;43.99;;
72686;Laerm;61365;52.162;4.500;2023-08-21T05:49:12;41.91;38.07;44.15;;
72686;Laerm;61365;52.162;4.500;2023-08-21T05:51:38;41.85;36.45;44.20;;
72686;Laerm;61365;52.162;4.500;2023-08-21T05:54:04;41.68;37.14;44.37;;
72686;Laerm;61365;52.162;4.500;2023-08-21T05:56:30;41.58;37.11;43.84;;
72686;Laerm;61365;52.162;4.500;2023-08-21T05:58:56;41.52;37.17;43.78;;
72686;Laerm;61365;52.162;4.500;2023-08-21T06:01:22;41.50;35.68;44.16;;
72686;Laerm;61365;52.162;4.500;2023-08-21T06:03:48;41.34;36.40;43.80;;
72686;Laerm;61365;52.162;4.500;2023-08-21T06:06:14;41.21;36.45;43.76;;
72686;Laerm;61365;52.162;4.500;2023-08-21T06:08:41;41.16;35.87;43.79;;
72686;Laerm;61365;52.162;4.500;2023-08-21T06:11:07;41.03;36.02;43.94;;
72686;Laerm;61365;52.162;4.500;2023-08-21T06:13:33;40.73;36.42;43.94;;
72686;Laerm;61365;52.162;4.500;2023-08-21T06:15:59;40.60;34.98;44.20;;
72686;Laerm;61365;52.162;4.500;2023-08-21T06:18:25;40.33;36.11;43.67;;
72686;Laerm;61365;52.162;4.500;2023-08-21T06:20:51;40.12;35.31;43.61;;
72686;Laerm;61365;52.162;4.500;2023-08-21T06:23:20;40.18;34.90;43.26;;
72686;Laerm;61365;52.162;4.500;2023-08-21T06:25:50;40.14;35.58;43.21;;
72686;Laerm;61365;52.162;4.500;2023-08-21T06:28:16;39.96;33.77;43.05;;
72686;Laerm;61365;52.162;4.500;2023-08-21T06:30:42;40.21;35.22;42.98;;
72686;Laerm;61365;52.162;4.500;2023-08-21T06:33:08;40.53;35.48;43.27;;
72686;Laerm;61365;52.162;4.500;2023-08-21T06:35:38;40.22;35.16;43.20;;
72686;Laerm;61365;52.162;4.500;2023-08-21T06:38:05;40.28;34.67;43.16;;
72686;Laerm;61365;52.162;4.500;2023-08-21T06:40:31;40.08;34.69;43.36;;
72686;Laerm;61365;52.162;4.500;2023-08-21T06:42:57;40.05;35.53;43.10;;
72686;Laerm;61365;52.162;4.500;2023-08-21T06:45:24;40.05;34.10;43.09;;
72686;Laerm;61365;52.162;4.500;2023-08-21T06:47:50;40.03;33.67;43.02;;
72686;Laerm;61365;52.162;4.500;2023-08-21T06:50:16;41.14;36.47;43.27;;
72686;Laerm;61365;52.162;4.500;2023-08-21T06:52:42;40.75;35.45;43.18;;
72686;Laerm;61365;52.162;4.500;2023-08-21T06:55:09;40.10;34.01;43.12;;
72686;Laerm;61365;52.162;4.500;2023-08-21T06:57:35;40.18;35.15;43.24;;
72686;Laerm;61365;52.162;4.500;2023-08-21T07:00:05;39.92;34.70;42.95;;
72686;Laerm;61365;52.162;4.500;2023-08-21T07:02:31;39.51;34.49;42.47;;
72686;Laerm;61365;52.162;4.500;2023-08-21T07:04:57;39.87;35.31;43.04;;
72686;Laerm;61365;52.162;4.500;2023-08-21T07:07:23;39.58;33.59;42.90;;
72686;Laerm;61365;52.162;4.500;2023-08-21T07:09:50;39.51;35.72;42.79;;
72686;Laerm;61365;52.162;4.500;2023-08-21T07:12:17;39.50;33.73;42.82;;
72686;Laerm;61365;52.162;4.500;2023-08-21T07:14:43;39.35;34.16;42.80;;
72686;Laerm;61365;52.162;4.500;2023-08-21T07:17:09;39.33;34.66;42.82;;
72686;Laerm;61365;52.162;4.500;2023-08-21T07:19:35;39.29;34.75;42.35;;
72686;Laerm;61365;52.162;4.500;2023-08-21T07:22:01;39.39;33.89;42.54;;
72686;Laerm;61365;52.162;4.500;2023-08-21T07:24:27;39.50;35.23;42.79;;
72686;Laerm;61365;52.162;4.500;2023-08-21T07:26:53;40.01;35.46;42.87;;
72686;Laerm;61365;52.162;4.500;2023-08-21T07:29:20;39.41;35.30;42.76;;
72686;Laerm;61365;52.162;4.500;2023-08-21T07:31:46;39.84;35.09;42.46;;
72686;Laerm;61365;52.162;4.500;2023-08-21T07:34:12;39.67;34.13;42.90;;
72686;Laerm;61365;52.162;4.500;2023-08-21T07:36:38;40.04;34.55;43.41;;
72686;Laerm;61365;52.162;4.500;2023-08-21T07:39:04;39.63;34.64;42.52;;
72686;Laerm;61365;52.162;4.500;2023-08-21T07:41:30;39.96;35.11;42.91;;
72686;Laerm;61365;52.162;4.500;2023-08-21T07:43:56;39.75;35.00;42.73;;
72686;Laerm;61365;52.162;4.500;2023-08-21T07:46:22;39.72;35.02;42.64;;
72686;Laerm;61365;52.162;4.500;2023-08-21T07:48:50;39.52;36.02;43.00;;
72686;Laerm;61365;52.162;4.500;2023-08-21T07:51:16;39.23;36.17;42.47;;
72686;Laerm;61365;52.162;4.500;2023-08-21T07:53:42;39.24;35.69;43.04;;
72686;Laerm;61365;52.162;4.500;2023-08-21T07:56:08;40.17;36.20;42.93;;
72686;Laerm;61365;52.162;4.500;2023-08-21T07:58:34;39.35;36.30;42.71;;
72686;Laerm;61365;52.162;4.500;2023-08-21T08:01:00;39.62;35.61;42.75;;
72686;Laerm;61365;52.162;4.500;2023-08-21T08:03:27;39.39;35.31;42.64;;
72686;Laerm;61365;52.162;4.500;2023-08-21T08:05:53;39.47;35.75;42.70;;
72686;Laerm;61365;52.162;4.500;2023-08-21T08:08:19;39.31;35.74;42.35;;
72686;Laerm;61365;52.162;4.500;2023-08-21T08:10:45;39.27;36.00;42.75;;
72686;Laerm;61365;52.162;4.500;2023-08-21T08:13:11;39.32;35.81;42.45;;
72686;Laerm;61365;52.162;4.500;2023-08-21T08:15:38;39.33;35.41;42.48;;
72686;Laerm;61365;52.162;4.500;2023-08-21T08:18:04;39.39;36.33;42.87;;
72686;Laerm;61365;52.162;4.500;2023-08-21T08:20:33;39.28;36.38;42.67;;
72686;Laerm;61365;52.162;4.500;2023-08-21T08:22:59;39.29;35.70;42.51;;
72686;Laerm;61365;52.162;4.500;2023-08-21T08:25:25;39.09;34.39;42.30;;
72686;Laerm;61365;52.162;4.500;2023-08-21T08:27:51;40.34;35.86;43.02;;
72686;Laerm;61365;52.162;4.500;2023-08-21T08:30:17;40.88;34.07;43.00;;
72686;Laerm;61365;52.162;4.500;2023-08-21T08:32:44;40.81;37.53;42.96;;
72686;Laerm;61365;52.162;4.500;2023-08-21T08:35:14;40.87;35.67;43.07;;
72686;Laerm;61365;52.162;4.500;2023-08-21T08:37:43;40.90;37.06;42.86;;
72686;Laerm;61365;52.162;4.500;2023-08-21T08:40:10;39.09;35.31;42.53;;
72686;Laerm;61365;52.162;4.500;2023-08-21T08:42:37;39.46;35.02;42.61;;
72686;Laerm;61365;52.162;4.500;2023-08-21T08:45:04;39.35;34.78;42.81;;
72686;Laerm;61365;52.162;4.500;2023-08-21T08:47:32;39.07;35.52;42.51;;
72686;Laerm;61365;52.162;4.500;2023-08-21T08:50:02;39.12;34.82;42.68;;
72686;Laerm;61365;52.162;4.500;2023-08-21T08:52:35;39.22;35.24;42.81;;
72686;Laerm;61365;52.162;4.500;2023-08-21T08:55:02;39.14;35.19;42.42;;
72686;Laerm;61365;52.162;4.500;2023-08-21T08:57:30;39.12;34.68;42.75;;
72686;Laerm;61365;52.162;4.500;2023-08-21T08:59:56;39.21;34.52;42.65;;
72686;Laerm;61365;52.162;4.500;2023-08-21T09:02:24;39.27;34.94;42.62;;
72686;Laerm;61365;52.162;4.500;2023-08-21T09:04:51;39.19;34.76;42.72;;
72686;Laerm;61365;52.162;4.500;2023-08-21T09:07:17;39.47;34.86;42.89;;
72686;Laerm;61365;52.162;4.500;2023-08-21T09:09:46;39.25;35.48;42.42;;
72686;Laerm;61365;52.162;4.500;2023-08-21T09:12:14;39.06;34.64;42.39;;
72686;Laerm;61365;52.162;4.500;2023-08-21T09:14:42;39.10;34.96;42.41;;
72686;Laerm;61365;52.162;4.500;2023-08-21T09:17:09;39.20;33.93;43.97;;
72686;Laerm;61365;52.162;4.500;2023-08-21T09:19:35;39.14;33.59;42.68;;
72686;Laerm;61365;52.162;4.500;2023-08-21T09:22:09;39.87;35.64;42.91;;
72686;Laerm;61365;52.162;4.500;2023-08-21T09:24:37;40.16;35.72;43.10;;
72686;Laerm;61365;52.162;4.500;2023-08-21T09:27:03;39.04;34.86;42.58;;
72686;Laerm;61365;52.162;4.500;2023-08-21T09:29:38;39.33;34.71;42.72;;
72686;Laerm;61365;52.162;4.500;2023-08-21T09:32:06;39.06;34.35;42.87;;
72686;Laerm;61365;52.162;4.500;2023-08-21T09:34:36;39.09;35.35;42.39;;
72686;Laerm;61365;52.162;4.500;2023-08-21T09:37:07;39.31;35.04;42.67;;
72686;Laerm;61365;52.162;4.500;2023-08-21T09:39:36;39.23;34.74;42.82;;
72686;Laerm;61365;52.162;4.500;2023-08-21T09:42:06;39.68;34.97;42.57;;
72686;Laerm;61365;52.162;4.500;2023-08-21T09:44:40;39.19;35.42;42.61;;
72686;Laerm;61365;52.162;4.500;2023-08-21T09:47:11;39.31;34.86;43.02;;
72686;Laerm;61365;52.162;4.500;2023-08-21T09:49:39;39.22;35.30;42.71;;
72686;Laerm;61365;52.162;4.500;2023-08-21T09:52:06;39.24;35.46;42.70;;
72686;Laerm;61365;52.162;4.500;2023-08-21T09:54:38;39.20;35.63;42.71;;
72686;Laerm;61365;52.162;4.500;2023-08-21T09:57:04;39.34;35.03;42.86;;
72686;Laerm;61365;52.162;4.500;2023-08-21T09:59:31;39.29;35.45;42.68;;
72686;Laerm;61365;52.162;4.500;2023-08-21T10:01:59;39.14;35.13;42.64;;
72686;Laerm;61365;52.162;4.500;2023-08-21T10:04:28;39.70;35.49;42.81;;
72686;Laerm;61365;52.162;4.500;2023-08-21T10:06:56;39.82;33.39;42.70;;
72686;Laerm;61365;52.162;4.500;2023-08-21T10:09:24;39.08;35.25;42.52;;
72686;Laerm;61365;52.162;4.500;2023-08-21T10:11:52;39.15;35.12;42.53;;
72686;Laerm;61365;52.162;4.500;2023-08-21T10:14:24;39.28;34.77;42.72;;
72686;Laerm;61365;52.162;4.500;2023-08-21T10:16:54;39.15;35.75;42.37;;
72686;Laerm;61365;52.162;4.500;2023-08-21T10:19:21;39.11;35.55;42.47;;
72686;Laerm;61365;52.162;4.500;2023-08-21T10:21:48;39.35;35.04;42.66;;
72686;Laerm;61365;52.162;4.500;2023-08-21T10:24:28;39.43;35.39;42.69;;
72686;Laerm;61365;52.162;4.500;2023-08-21T10:26:58;39.41;34.83;42.72;;
72686;Laerm;61365;52.162;4.500;2023-08-21T10:29:24;39.21;35.05;42.40;;
72686;Laerm;61365;52.162;4.500;2023-08-21T10:32:03;39.34;35.39;42.98;;
72686;Laerm;61365;52.162;4.500;2023-08-21T10:34:37;39.49;35.26;42.81;;
72686;Laerm;61365;52.162;4.500;2023-08-21T10:37:10;40.71;36.43;43.05;;
72686;Laerm;61365;52.162;4.500;2023-08-21T10:39:40;39.21;34.86;42.59;;
72686;Laerm;61365;52.162;4.500;2023-08-21T10:42:18;39.26;35.11;42.50;;
72686;Laerm;61365;52.162;4.500;2023-08-21T10:49:54;40.63;35.73;43.08;;
72686;Laerm;61365;52.162;4.500;2023-08-21T10:52:28;39.36;34.88;42.77;;
72686;Laerm;61365;52.162;4.500;2023-08-21T10:54:56;39.25;35.30;43.05;;
72686;Laerm;61365;52.162;4.500;2023-08-21T10:57:24;39.44;34.79;43.03;;
72686;Laerm;61365;52.162;4.500;2023-08-21T11:00:05;39.38;35.54;42.68;;
72686;Laerm;61365;52.162;4.500;2023-08-21T11:02:35;39.47;34.95;42.77;;
72686;Laerm;61365;52.162;4.500;2023-08-21T11:05:02;39.52;35.06;42.69;;
72686;Laerm;61365;52.162;4.500;2023-08-21T11:07:37;39.57;35.20;42.74;;
72686;Laerm;61365;52.162;4.500;2023-08-21T11:10:08;39.42;35.30;42.76;;
72686;Laerm;61365;52.162;4.500;2023-08-21T11:12:35;40.23;34.45;42.90;;
72686;Laerm;61365;52.162;4.500;2023-08-21T11:15:03;39.49;35.08;42.76;;
72686;Laerm;61365;52.162;4.500;2023-08-21T11:17:29;39.06;32.81;42.55;;
72686;Laerm;61365;52.162;4.500;2023-08-21T11:19:56;39.84;34.26;43.17;;
72686;Laerm;61365;52.162;4.500;2023-08-21T11:22:28;39.10;33.68;42.50;;
72686;Laerm;61365;52.162;4.500;2023-08-21T11:24:56;39.31;34.09;42.84;;
72686;Laerm;61365;52.162;4.500;2023-08-21T11:27:22;39.32;33.58;42.87;;
72686;Laerm;61365;52.162;4.500;2023-08-21T11:29:50;39.60;32.26;42.79;;
72686;Laerm;61365;52.162;4.500;2023-08-21T11:32:22;39.34;34.03;42.96;;
72686;Laerm;61365;52.162;4.500;2023-08-21T11:34:55;39.53;32.00;42.78;;
72686;Laerm;61365;52.162;4.500;2023-08-21T11:37:26;40.02;33.88;43.09;;
72686;Laerm;61365;52.162;4.500;2023-08-21T11:39:57;39.42;34.21;42.80;;
72686;Laerm;61365;52.162;4.500;2023-08-21T11:42:31;39.40;32.41;42.70;;
72686;Laerm;61365;52.162;4.500;2023-08-21T11:44:58;39.33;34.19;42.86;;
72686;Laerm;61365;52.162;4.500;2023-08-21T11:47:34;39.46;33.25;43.39;;
72686;Laerm;61365;52.162;4.500;2023-08-21T11:50:07;40.56;34.46;43.16;;
72686;Laerm;61365;52.162;4.500;2023-08-21T11:52:36;40.12;35.14;42.91;;
72686;Laerm;61365;52.162;4.500;2023-08-21T11:55:10;40.40;33.20;42.80;;
72686;Laerm;61365;52.162;4.500;2023-08-21T11:57:49;40.58;34.91;42.94;;
72686;Laerm;61365;52.162;4.500;2023-08-21T12:00:16;39.36;33.95;42.43;;
72686;Laerm;61365;52.162;4.500;2023-08-21T12:03:17;39.43;34.35;42.87;;
72686;Laerm;61365;52.162;4.500;2023-08-21T12:05:43;39.95;34.69;42.94;;
72686;Laerm;61365;52.162;4.500;2023-08-21T12:08:10;39.35;34.62;42.70;;
72686;Laerm;61365;52.162;4.500;2023-08-21T12:10:36;39.35;34.24;42.79;;
72686;Laerm;61365;52.162;4.500;2023-08-21T12:13:02;39.48;33.67;42.79;;
72686;Laerm;61365;52.162;4.500;2023-08-21T12:15:29;39.40;34.34;43.02;;
72686;Laerm;61365;52.162;4.500;2023-08-21T12:17:55;39.36;33.59;42.70;;
72686;Laerm;61365;52.162;4.500;2023-08-21T12:20:22;39.34;34.03;42.93;;
72686;Laerm;61365;52.162;4.500;2023-08-21T12:22:48;39.49;33.16;42.76;;
72686;Laerm;61365;52.162;4.500;2023-08-21T12:25:14;39.40;33.52;43.02;;
72686;Laerm;61365;52.162;4.500;2023-08-21T12:27:42;39.59;34.76;42.53;;
72686;Laerm;61365;52.162;4.500;2023-08-21T12:30:08;39.35;34.55;42.75;;
72686;Laerm;61365;52.162;4.500;2023-08-21T12:32:34;39.45;34.13;42.91;;
72686;Laerm;61365;52.162;4.500;2023-08-21T12:35:00;39.76;33.52;42.82;;
72686;Laerm;61365;52.162;4.500;2023-08-21T12:37:26;39.70;33.12;42.99;;
72686;Laerm;61365;52.162;4.500;2023-08-21T12:39:53;40.91;33.35;43.08;;
72686;Laerm;61365;52.162;4.500;2023-08-21T12:42:19;40.03;34.80;43.22;;
72686;Laerm;61365;52.162;4.500;2023-08-21T12:44:45;40.63;34.57;42.86;;
72686;Laerm;61365;52.162;4.500;2023-08-21T12:47:12;40.42;34.30;42.89;;
72686;Laerm;61365;52.162;4.500;2023-08-21T12:49:38;40.07;34.46;43.31;;
72686;Laerm;61365;52.162;4.500;2023-08-21T12:52:05;40.38;33.10;43.12;;
72686;Laerm;61365;52.162;4.500;2023-08-21T12:54:32;40.76;33.27;42.77;;
72686;Laerm;61365;52.162;4.500;2023-08-21T12:56:58;39.88;32.81;42.76;;
72686;Laerm;61365;52.162;4.500;2023-08-21T12:59:24;39.84;32.62;42.70;;
72686;Laerm;61365;52.162;4.500;2023-08-21T13:01:50;39.91;33.75;42.81;;
72686;Laerm;61365;52.162;4.500;2023-08-21T13:04:17;40.08;33.83;42.87;;
72686;Laerm;61365;52.162;4.500;2023-08-21T13:06:43;40.28;34.55;42.79;;
72686;Laerm;61365;52.162;4.500;2023-08-21T13:09:09;39.98;34.60;42.98;;
72686;Laerm;61365;52.162;4.500;2023-08-21T13:11:35;39.84;33.65;42.72;;
72686;Laerm;61365;52.162;4.500;2023-08-21T13:14:01;39.83;33.95;42.66;;
72686;Laerm;61365;52.162;4.500;2023-08-21T13:16:28;39.79;33.99;42.66;;
72686;Laerm;61365;52.162;4.500;2023-08-21T13:18:54;39.73;34.05;42.72;;
72686;Laerm;61365;52.162;4.500;2023-08-21T13:21:20;39.77;34.23;42.74;;
72686;Laerm;61365;52.162;4.500;2023-08-21T13:23:46;39.92;33.47;42.74;;
72686;Laerm;61365;52.162;4.500;2023-08-21T13:26:12;39.73;33.67;42.45;;
72686;Laerm;61365;52.162;4.500;2023-08-21T13:28:38;39.71;33.66;42.46;;
72686;Laerm;61365;52.162;4.500;2023-08-21T13:31:05;39.70;34.32;42.58;;
72686;Laerm;61365;52.162;4.500;2023-08-21T13:33:47;40.05;34.07;42.88;;
72686;Laerm;61365;52.162;4.500;2023-08-21T13:36:14;40.10;33.29;43.01;;
72686;Laerm;61365;52.162;4.500;2023-08-21T13:38:40;41.02;34.17;43.23;;
72686;Laerm;61365;52.162;4.500;2023-08-21T13:41:07;41.01;34.25;43.00;;
72686;Laerm;61365;52.162;4.500;2023-08-21T13:43:34;39.85;34.46;42.75;;
72686;Laerm;61365;52.162;4.500;2023-08-21T13:46:01;39.73;33.25;43.13;;
72686;Laerm;61365;52.162;4.500;2023-08-21T13:48:30;39.69;33.97;42.92;;
72686;Laerm;61365;52.162;4.500;2023-08-21T13:50:57;39.60;33.34;43.08;;